sensor_id;sensor_type;location;lat;lon;timestamp;pressure;altitude;pressure_sealevel;temperature;humidity
59029;BME280;45919;51.420;5.454;2023-01-28T00:00:50;102751.47;;;4.32;67.12
59029;BME280;45919;51.420;5.454;2023-01-28T00:01:51;102751.47;;;4.32;67.32
59029;BME280;45919;51.420;5.454;2023-01-28T00:02:53;102753.19;;;4.32;67.46
59029;BME280;45919;51.420;5.454;2023-01-28T00:03:54;102755.66;;;4.30;67.46
59029;BME280;45919;51.420;5.454;2023-01-28T00:04:56;102758.34;;;4.32;67.60
59029;BME280;45919;51.420;5.454;2023-01-28T00:06:01;102753.06;;;4.30;67.40
59029;BME280;45919;51.420;5.454;2023-01-28T00:07:03;102753.94;;;4.30;67.35
59029;BME280;45919;51.420;5.454;2023-01-28T00:08:04;102752.16;;;4.29;67.38
59029;BME280;45919;51.420;5.454;2023-01-28T00:09:06;102750.34;;;4.28;67.77
59029;BME280;45919;51.420;5.454;2023-01-28T00:10:07;102750.34;;;4.28;67.72
59029;BME280;45919;51.420;5.454;2023-01-28T00:11:10;102752.63;;;4.24;67.46
59029;BME280;45919;51.420;5.454;2023-01-28T00:12:11;102750.94;;;4.24;67.62
59029;BME280;45919;51.420;5.454;2023-01-28T00:13:13;102753.53;;;4.24;67.95
59029;BME280;45919;51.420;5.454;2023-01-28T00:14:15;102750.03;;;4.24;67.74
59029;BME280;45919;51.420;5.454;2023-01-28T00:15:16;102746.63;;;4.25;67.81
59029;BME280;45919;51.420;5.454;2023-01-28T00:16:18;102749.22;;;4.25;67.95
59029;BME280;45919;51.420;5.454;2023-01-28T00:17:20;102750.13;;;4.25;68.08
59029;BME280;45919;51.420;5.454;2023-01-28T00:18:21;102751.03;;;4.26;67.81
59029;BME280;45919;51.420;5.454;2023-01-28T00:19:23;102747.66;;;4.27;67.99
59029;BME280;45919;51.420;5.454;2023-01-28T00:20:24;102750.50;;;4.30;68.44
59029;BME280;45919;51.420;5.454;2023-01-28T00:21:26;102748.00;;;4.32;68.71
59029;BME280;45919;51.420;5.454;2023-01-28T00:22:27;102749.69;;;4.31;68.61
59029;BME280;45919;51.420;5.454;2023-01-28T00:23:30;102748.00;;;4.32;68.51
59029;BME280;45919;51.420;5.454;2023-01-28T00:24:32;102752.28;;;4.31;68.49
59029;BME280;45919;51.420;5.454;2023-01-28T00:25:33;102748.78;;;4.30;68.14
59029;BME280;45919;51.420;5.454;2023-01-28T00:26:35;102746.19;;;4.30;68.45
59029;BME280;45919;51.420;5.454;2023-01-28T00:27:36;102746.28;;;4.32;68.56
59029;BME280;45919;51.420;5.454;2023-01-28T00:28:38;102753.19;;;4.32;68.27
59029;BME280;45919;51.420;5.454;2023-01-28T00:29:40;102753.19;;;4.32;68.42
59029;BME280;45919;51.420;5.454;2023-01-28T00:30:41;102755.78;;;4.32;68.06
59029;BME280;45919;51.420;5.454;2023-01-28T00:31:43;102757.34;;;4.29;67.50
59029;BME280;45919;51.420;5.454;2023-01-28T00:32:44;102752.84;;;4.27;67.61
59029;BME280;45919;51.420;5.454;2023-01-28T00:33:46;102753.63;;;4.26;67.92
59029;BME280;45919;51.420;5.454;2023-01-28T00:34:48;102750.13;;;4.25;68.08
59029;BME280;45919;51.420;5.454;2023-01-28T00:35:57;102744.97;;;4.25;68.36
59029;BME280;45919;51.420;5.454;2023-01-28T00:36:59;102751.03;;;4.26;68.51
59029;BME280;45919;51.420;5.454;2023-01-28T00:38:00;102751.81;;;4.25;68.13
59029;BME280;45919;51.420;5.454;2023-01-28T00:39:04;102750.94;;;4.24;68.23
59029;BME280;45919;51.420;5.454;2023-01-28T00:40:06;102753.41;;;4.23;68.33
59029;BME280;45919;51.420;5.454;2023-01-28T00:41:14;102757.56;;;4.21;68.03
59029;BME280;45919;51.420;5.454;2023-01-28T00:42:15;102752.16;;;4.17;67.91
59029;BME280;45919;51.420;5.454;2023-01-28T00:43:17;102756.56;;;4.18;68.16
59029;BME280;45919;51.420;5.454;2023-01-28T00:44:18;102759.91;;;4.17;68.06
59029;BME280;45919;51.420;5.454;2023-01-28T00:45:20;102758.25;;;4.18;68.26
59029;BME280;45919;51.420;5.454;2023-01-28T00:46:22;102761.63;;;4.17;68.28
59029;BME280;45919;51.420;5.454;2023-01-28T00:47:23;102753.88;;;4.17;68.46
59029;BME280;45919;51.420;5.454;2023-01-28T00:48:25;102767.56;;;4.16;68.43
59029;BME280;45919;51.420;5.454;2023-01-28T00:49:26;102761.63;;;4.17;68.54
59029;BME280;45919;51.420;5.454;2023-01-28T00:50:28;102759.03;;;4.17;68.42
59029;BME280;45919;51.420;5.454;2023-01-28T00:51:29;102753.97;;;4.18;68.49
59029;BME280;45919;51.420;5.454;2023-01-28T00:52:31;102765.09;;;4.17;68.25
59029;BME280;45919;51.420;5.454;2023-01-28T00:53:32;102761.63;;;4.17;68.18
59029;BME280;45919;51.420;5.454;2023-01-28T00:54:36;102765.09;;;4.17;68.31
59029;BME280;45919;51.420;5.454;2023-01-28T00:55:38;102763.41;;;4.18;68.46
59029;BME280;45919;51.420;5.454;2023-01-28T00:56:39;102761.75;;;4.18;68.52
59029;BME280;45919;51.420;5.454;2023-01-28T00:57:41;102771.28;;;4.19;68.57
59029;BME280;45919;51.420;5.454;2023-01-28T00:58:42;102769.59;;;4.20;68.72
59029;BME280;45919;51.420;5.454;2023-01-28T00:59:44;102771.38;;;4.21;68.45
59029;BME280;45919;51.420;5.454;2023-01-28T01:00:46;102769.59;;;4.20;68.33
59029;BME280;45919;51.420;5.454;2023-01-28T01:01:47;102773.97;;;4.21;68.42
59029;BME280;45919;51.420;5.454;2023-01-28T01:02:49;102773.97;;;4.21;68.51
59029;BME280;45919;51.420;5.454;2023-01-28T01:03:51;102769.81;;;4.23;68.75
59029;BME280;45919;51.420;5.454;2023-01-28T01:04:58;102781.06;;;4.24;68.68
59029;BME280;45919;51.420;5.454;2023-01-28T01:05:59;102775.09;;;4.25;68.45
59029;BME280;45919;51.420;5.454;2023-01-28T01:07:01;102772.41;;;4.23;68.28
59029;BME280;45919;51.420;5.454;2023-01-28T01:08:03;102778.38;;;4.22;68.07
59029;BME280;45919;51.420;5.454;2023-01-28T01:09:05;102771.38;;;4.21;67.97
59029;BME280;45919;51.420;5.454;2023-01-28T01:10:09;102773.09;;;4.21;67.93
59029;BME280;45919;51.420;5.454;2023-01-28T01:11:11;102775.69;;;4.21;68.02
59029;BME280;45919;51.420;5.454;2023-01-28T01:12:12;102771.28;;;4.19;68.27
59029;BME280;45919;51.420;5.454;2023-01-28T01:13:14;102773.97;;;4.21;68.33
59029;BME280;45919;51.420;5.454;2023-01-28T01:14:16;102769.50;;;4.18;67.62
59029;BME280;45919;51.420;5.454;2023-01-28T01:15:17;102775.59;;;4.19;67.83
59029;BME280;45919;51.420;5.454;2023-01-28T01:16:19;102770.50;;;4.21;68.01
59029;BME280;45919;51.420;5.454;2023-01-28T01:17:21;102766.22;;;4.21;67.92
59029;BME280;45919;51.420;5.454;2023-01-28T01:18:23;102767.13;;;4.22;68.00
59029;BME280;45919;51.420;5.454;2023-01-28T01:19:24;102771.53;;;4.23;68.18
59029;BME280;45919;51.420;5.454;2023-01-28T01:20:27;102775.09;;;4.25;68.29
59029;BME280;45919;51.420;5.454;2023-01-28T01:21:29;102772.41;;;4.23;68.16
59029;BME280;45919;51.420;5.454;2023-01-28T01:22:34;102767.13;;;4.22;67.79
59029;BME280;45919;51.420;5.454;2023-01-28T01:23:36;102760.16;;;4.21;67.93
59029;BME280;45919;51.420;5.454;2023-01-28T01:24:38;102766.09;;;4.19;67.70
59029;BME280;45919;51.420;5.454;2023-01-28T01:25:39;102764.44;;;4.20;67.94
59029;BME280;45919;51.420;5.454;2023-01-28T01:26:40;102764.44;;;4.20;68.12
59029;BME280;45919;51.420;5.454;2023-01-28T01:27:42;102766.09;;;4.19;68.09
59029;BME280;45919;51.420;5.454;2023-01-28T01:28:45;102767.03;;;4.20;67.79
59029;BME280;45919;51.420;5.454;2023-01-28T01:29:46;102768.81;;;4.21;67.91
59029;BME280;45919;51.420;5.454;2023-01-28T01:30:48;102766.22;;;4.21;67.60
59029;BME280;45919;51.420;5.454;2023-01-28T01:31:49;102767.13;;;4.22;67.89
59029;BME280;45919;51.420;5.454;2023-01-28T01:32:51;102768.03;;;4.22;68.11
59029;BME280;45919;51.420;5.454;2023-01-28T01:33:52;102765.44;;;4.22;67.99
59029;BME280;45919;51.420;5.454;2023-01-28T01:34:54;102767.22;;;4.23;68.35
59029;BME280;45919;51.420;5.454;2023-01-28T01:35:56;102763.88;;;4.24;68.56
59029;BME280;45919;51.420;5.454;2023-01-28T01:36:57;102765.66;;;4.25;68.43
59029;BME280;45919;51.420;5.454;2023-01-28T01:37:59;102763.97;;;4.26;68.60
59029;BME280;45919;51.420;5.454;2023-01-28T01:39:01;102762.31;;;4.26;68.53
59029;BME280;45919;51.420;5.454;2023-01-28T01:40:03;102767.47;;;4.26;68.50
59029;BME280;45919;51.420;5.454;2023-01-28T01:41:05;102765.78;;;4.27;68.65
59029;BME280;45919;51.420;5.454;2023-01-28T01:42:09;102762.31;;;4.26;68.42
59029;BME280;45919;51.420;5.454;2023-01-28T01:43:18;102763.97;;;4.26;67.70
59029;BME280;45919;51.420;5.454;2023-01-28T01:45:40;102759.56;;;4.25;68.16
59029;BME280;45919;51.420;5.454;2023-01-28T01:46:43;102759.56;;;4.25;68.34
59029;BME280;45919;51.420;5.454;2023-01-28T01:48:53;102769.16;;;4.26;68.01
59029;BME280;45919;51.420;5.454;2023-01-28T01:49:56;102766.56;;;4.26;68.36
59029;BME280;45919;51.420;5.454;2023-01-28T01:51:04;102767.47;;;4.26;68.51
59029;BME280;45919;51.420;5.454;2023-01-28T01:52:10;102770.84;;;4.25;68.35
59029;BME280;45919;51.420;5.454;2023-01-28T01:53:15;102766.47;;;4.24;67.90
59029;BME280;45919;51.420;5.454;2023-01-28T01:54:17;102768.03;;;4.22;67.39
59029;BME280;45919;51.420;5.454;2023-01-28T01:55:20;102771.53;;;4.23;67.78
59029;BME280;45919;51.420;5.454;2023-01-28T01:56:23;102773.22;;;4.22;67.73
59029;BME280;45919;51.420;5.454;2023-01-28T01:57:31;102773.22;;;4.22;67.85
59029;BME280;45919;51.420;5.454;2023-01-28T01:58:34;102763.78;;;4.23;68.17
59029;BME280;45919;51.420;5.454;2023-01-28T01:59:39;102772.28;;;4.22;67.68
59029;BME280;45919;51.420;5.454;2023-01-28T02:00:42;102767.56;;;4.16;66.34
59029;BME280;45919;51.420;5.454;2023-01-28T02:01:44;102766.81;;;4.17;67.14
59029;BME280;45919;51.420;5.454;2023-01-28T02:02:48;102765.78;;;4.15;67.33
59029;BME280;45919;51.420;5.454;2023-01-28T02:04:52;102775.22;;;4.14;67.91
59029;BME280;45919;51.420;5.454;2023-01-28T02:05:54;102777.91;;;4.16;67.96
59029;BME280;45919;51.420;5.454;2023-01-28T02:06:56;102776.13;;;4.15;68.00
59029;BME280;45919;51.420;5.454;2023-01-28T02:07:58;102769.16;;;4.14;67.75
59029;BME280;45919;51.420;5.454;2023-01-28T02:10:23;102769.72;;;4.10;67.32
59029;BME280;45919;51.420;5.454;2023-01-28T02:11:26;102770.59;;;4.10;67.48
59029;BME280;45919;51.420;5.454;2023-01-28T02:12:30;102772.31;;;4.10;67.57
59029;BME280;45919;51.420;5.454;2023-01-28T02:13:36;102771.50;;;4.11;67.70
59029;BME280;45919;51.420;5.454;2023-01-28T02:14:47;102767.16;;;4.10;67.83
59029;BME280;45919;51.420;5.454;2023-01-28T02:15:50;102774.00;;;4.09;67.38
59029;BME280;45919;51.420;5.454;2023-01-28T02:16:51;102775.00;;;4.11;67.83
59029;BME280;45919;51.420;5.454;2023-01-28T02:17:53;102773.19;;;4.10;67.97
59029;BME280;45919;51.420;5.454;2023-01-28T02:18:55;102686.97;;;3.62;67.70
59029;BME280;45919;51.420;5.454;2023-01-28T02:19:58;102773.34;;;4.12;67.89
59029;BME280;45919;51.420;5.454;2023-01-28T02:23:31;102775.34;;;4.16;68.46
59029;BME280;45919;51.420;5.454;2023-01-28T02:33:04;102771.09;;;4.04;67.35
59029;BME280;45919;51.420;5.454;2023-01-28T02:35:14;102770.38;;;4.07;67.97
59029;BME280;45919;51.420;5.454;2023-01-28T02:36:29;102777.25;;;4.06;67.34
59029;BME280;45919;51.420;5.454;2023-01-28T02:37:34;102777.94;;;4.04;66.38
59029;BME280;45919;51.420;5.454;2023-01-28T02:38:41;102782.19;;;4.03;66.97
59029;BME280;45919;51.420;5.454;2023-01-28T02:39:47;102776.91;;;4.02;67.02
59029;BME280;45919;51.420;5.454;2023-01-28T02:40:50;102774.34;;;4.02;67.31
59029;BME280;45919;51.420;5.454;2023-01-28T02:42:03;102780.16;;;3.99;67.53
59029;BME280;45919;51.420;5.454;2023-01-28T02:43:07;102778.38;;;3.98;67.47
59029;BME280;45919;51.420;5.454;2023-01-28T02:44:08;102781.06;;;4.00;67.39
59029;BME280;45919;51.420;5.454;2023-01-28T02:45:21;102785.34;;;3.99;67.52
59029;BME280;45919;51.420;5.454;2023-01-28T02:47:45;102777.03;;;4.03;67.76
59029;BME280;45919;51.420;5.454;2023-01-28T02:48:59;102772.75;;;4.04;67.46
59029;BME280;45919;51.420;5.454;2023-01-28T02:50:02;102779.72;;;4.05;66.97
59029;BME280;45919;51.420;5.454;2023-01-28T02:51:08;102775.25;;;4.02;66.16
59029;BME280;45919;51.420;5.454;2023-01-28T02:52:21;102776.91;;;4.02;65.53
59029;BME280;45919;51.420;5.454;2023-01-28T02:53:49;102777.47;;;3.98;64.59
59029;BME280;45919;51.420;5.454;2023-01-28T02:55:08;102773.00;;;3.95;64.98
59029;BME280;45919;51.420;5.454;2023-01-28T02:57:34;102770.84;;;3.89;64.58
59029;BME280;45919;51.420;5.454;2023-01-28T02:58:46;102781.94;;;3.88;64.78
59029;BME280;45919;51.420;5.454;2023-01-28T02:59:56;102780.06;;;3.86;65.45
59029;BME280;45919;51.420;5.454;2023-01-28T03:01:12;102779.16;;;3.85;64.90
59029;BME280;45919;51.420;5.454;2023-01-28T03:02:21;102779.94;;;3.84;64.96
59029;BME280;45919;51.420;5.454;2023-01-28T03:03:28;102782.41;;;3.82;65.40
59029;BME280;45919;51.420;5.454;2023-01-28T03:04:38;102783.31;;;3.83;66.21
59029;BME280;45919;51.420;5.454;2023-01-28T03:05:46;102779.16;;;3.85;66.16
59029;BME280;45919;51.420;5.454;2023-01-28T03:07:04;102781.84;;;3.87;66.33
59029;BME280;45919;51.420;5.454;2023-01-28T03:08:07;102780.94;;;3.86;65.82
59029;BME280;45919;51.420;5.454;2023-01-28T03:09:29;102791.41;;;3.88;66.04
59029;BME280;45919;51.420;5.454;2023-01-28T03:10:31;102780.16;;;3.87;65.69
59029;BME280;45919;51.420;5.454;2023-01-28T03:11:33;102784.53;;;3.88;66.14
59029;BME280;45919;51.420;5.454;2023-01-28T03:12:55;102783.53;;;3.86;65.09
59029;BME280;45919;51.420;5.454;2023-01-28T03:14:16;102753.75;;;3.67;67.18
59029;BME280;45919;51.420;5.454;2023-01-28T03:15:41;102787.03;;;3.87;67.05
59029;BME280;45919;51.420;5.454;2023-01-28T03:17:02;102790.50;;;3.87;67.08
59029;BME280;45919;51.420;5.454;2023-01-28T03:18:29;102795.56;;;3.86;67.09
59029;BME280;45919;51.420;5.454;2023-01-28T03:19:51;102785.88;;;3.83;66.40
59029;BME280;45919;51.420;5.454;2023-01-28T03:21:28;102791.59;;;3.79;65.41
59029;BME280;45919;51.420;5.454;2023-01-28T03:22:50;102780.94;;;3.74;64.43
59029;BME280;45919;51.420;5.454;2023-01-28T03:24:19;102790.38;;;3.74;65.04
59029;BME280;45919;51.420;5.454;2023-01-28T03:25:41;102788.47;;;3.71;64.54
59029;BME280;45919;51.420;5.454;2023-01-28T03:28:23;102784.06;;;3.70;65.46
59029;BME280;45919;51.420;5.454;2023-01-28T03:29:44;102791.06;;;3.71;65.24
59029;BME280;45919;51.420;5.454;2023-01-28T03:31:09;102791.94;;;3.71;65.33
59029;BME280;45919;51.420;5.454;2023-01-28T03:32:31;102788.47;;;3.71;65.11
59029;BME280;45919;51.420;5.454;2023-01-28T03:33:52;102792.84;;;3.72;65.54
59029;BME280;45919;51.420;5.454;2023-01-28T03:35:13;102798.00;;;3.72;65.75
59029;BME280;45919;51.420;5.454;2023-01-28T03:36:34;102795.44;;;3.72;64.91
59029;BME280;45919;51.420;5.454;2023-01-28T03:37:53;102800.72;;;3.74;65.46
59029;BME280;45919;51.420;5.454;2023-01-28T03:38:55;102795.66;;;3.75;66.13
59029;BME280;45919;51.420;5.454;2023-01-28T03:40:03;102796.56;;;3.76;66.09
59029;BME280;45919;51.420;5.454;2023-01-28T03:41:05;102801.72;;;3.76;66.07
59029;BME280;45919;51.420;5.454;2023-01-28T03:42:07;102801.72;;;3.76;65.47
59029;BME280;45919;51.420;5.454;2023-01-28T03:43:09;102800.06;;;3.76;65.27
59029;BME280;45919;51.420;5.454;2023-01-28T03:44:10;102809.59;;;3.77;65.37
59029;BME280;45919;51.420;5.454;2023-01-28T03:45:31;102808.72;;;3.77;65.09
59029;BME280;45919;51.420;5.454;2023-01-28T03:46:32;102805.34;;;3.78;65.57
59029;BME280;45919;51.420;5.454;2023-01-28T03:47:36;102805.34;;;3.78;65.41
59029;BME280;45919;51.420;5.454;2023-01-28T03:48:37;102801.84;;;3.77;65.83
59029;BME280;45919;51.420;5.454;2023-01-28T03:49:43;102804.41;;;3.77;65.67
59029;BME280;45919;51.420;5.454;2023-01-28T03:50:49;102804.53;;;3.79;65.50
59029;BME280;45919;51.420;5.454;2023-01-28T03:51:51;102796.78;;;3.79;66.08
59029;BME280;45919;51.420;5.454;2023-01-28T03:52:52;102802.84;;;3.79;66.37
59029;BME280;45919;51.420;5.454;2023-01-28T03:53:54;102794.34;;;3.80;65.84
59029;BME280;45919;51.420;5.454;2023-01-28T03:54:56;102795.22;;;3.81;66.11
59029;BME280;45919;51.420;5.454;2023-01-28T03:55:57;102802.97;;;3.81;65.92
59029;BME280;45919;51.420;5.454;2023-01-28T03:56:59;102793.53;;;3.81;66.48
59029;BME280;45919;51.420;5.454;2023-01-28T03:58:01;102794.44;;;3.82;66.38
59029;BME280;45919;51.420;5.454;2023-01-28T03:59:02;102788.47;;;3.83;66.47
59029;BME280;45919;51.420;5.454;2023-01-28T04:00:04;102793.66;;;3.83;66.76
59029;BME280;45919;51.420;5.454;2023-01-28T04:01:07;102785.13;;;3.84;66.65
59029;BME280;45919;51.420;5.454;2023-01-28T04:02:09;102789.50;;;3.85;66.27
59029;BME280;45919;51.420;5.454;2023-01-28T04:03:12;102792.06;;;3.85;66.26
59029;BME280;45919;51.420;5.454;2023-01-28T04:04:17;102798.16;;;3.86;66.26
59029;BME280;45919;51.420;5.454;2023-01-28T04:05:24;102790.50;;;3.87;66.84
59029;BME280;45919;51.420;5.454;2023-01-28T04:06:26;102788.84;;;3.88;67.40
59029;BME280;45919;51.420;5.454;2023-01-28T04:07:29;102789.50;;;3.85;66.75
59029;BME280;45919;51.420;5.454;2023-01-28T04:08:30;102796.44;;;3.86;67.22
59029;BME280;45919;51.420;5.454;2023-01-28T04:09:32;102801.41;;;3.83;64.75
59029;BME280;45919;51.420;5.454;2023-01-28T04:10:33;102802.19;;;3.82;65.23
59029;BME280;45919;51.420;5.454;2023-01-28T04:11:35;102802.19;;;3.82;64.87
59029;BME280;45919;51.420;5.454;2023-01-28T04:12:36;102800.28;;;3.79;63.82
59029;BME280;45919;51.420;5.454;2023-01-28T04:13:38;102805.44;;;3.79;63.66
59029;BME280;45919;51.420;5.454;2023-01-28T04:14:39;102808.94;;;3.80;64.80
59029;BME280;45919;51.420;5.454;2023-01-28T04:15:41;102815.03;;;3.80;65.03
59029;BME280;45919;51.420;5.454;2023-01-28T04:16:43;102812.28;;;3.79;65.18
59029;BME280;45919;51.420;5.454;2023-01-28T04:17:45;102809.69;;;3.79;65.57
59029;BME280;45919;51.420;5.454;2023-01-28T04:18:47;102811.41;;;3.78;65.60
59029;BME280;45919;51.420;5.454;2023-01-28T04:19:48;102813.19;;;3.79;65.78
59029;BME280;45919;51.420;5.454;2023-01-28T04:20:50;102816.81;;;3.81;66.07
59029;BME280;45919;51.420;5.454;2023-01-28T04:21:51;102813.41;;;3.82;66.26
59029;BME280;45919;51.420;5.454;2023-01-28T04:22:56;102817.81;;;3.83;66.26
59029;BME280;45919;51.420;5.454;2023-01-28T04:23:58;102819.72;;;3.86;66.22
59029;BME280;45919;51.420;5.454;2023-01-28T04:25:00;102808.63;;;3.87;65.77
59029;BME280;45919;51.420;5.454;2023-01-28T04:26:01;102819.06;;;3.89;65.86
59029;BME280;45919;51.420;5.454;2023-01-28T04:27:04;102815.81;;;3.91;66.07
59029;BME280;45919;51.420;5.454;2023-01-28T04:28:06;102818.25;;;3.90;65.51
59029;BME280;45919;51.420;5.454;2023-01-28T04:29:07;102813.09;;;3.90;65.30
59029;BME280;45919;51.420;5.454;2023-01-28T04:30:09;102820.09;;;3.91;65.23
59029;BME280;45919;51.420;5.454;2023-01-28T04:31:10;102813.09;;;3.90;65.40
59029;BME280;45919;51.420;5.454;2023-01-28T04:32:12;102815.81;;;3.91;65.40
59029;BME280;45919;51.420;5.454;2023-01-28T04:33:13;102826.16;;;3.91;65.08
59029;BME280;45919;51.420;5.454;2023-01-28T04:34:15;102813.09;;;3.90;64.43
59029;BME280;45919;51.420;5.454;2023-01-28T04:35:18;102815.81;;;3.91;64.68
59029;BME280;45919;51.420;5.454;2023-01-28T04:36:19;102811.19;;;3.87;61.99
59029;BME280;45919;51.420;5.454;2023-01-28T04:37:21;102817.13;;;3.86;62.50
59029;BME280;45919;51.420;5.454;2023-01-28T04:38:22;102811.97;;;3.86;63.55
59029;BME280;45919;51.420;5.454;2023-01-28T04:39:24;102807.59;;;3.85;62.83
59029;BME280;45919;51.420;5.454;2023-01-28T04:40:25;102809.38;;;3.86;64.79
59029;BME280;45919;51.420;5.454;2023-01-28T04:41:27;102812.88;;;3.87;65.41
59029;BME280;45919;51.420;5.454;2023-01-28T04:42:28;102817.28;;;3.88;65.33
59029;BME280;45919;51.420;5.454;2023-01-28T04:43:30;102815.47;;;3.87;64.25
59029;BME280;45919;51.420;5.454;2023-01-28T04:44:31;102811.97;;;3.86;65.10
59029;BME280;45919;51.420;5.454;2023-01-28T04:45:33;102810.19;;;3.85;65.02
59029;BME280;45919;51.420;5.454;2023-01-28T04:46:34;102809.38;;;3.86;65.12
59029;BME280;45919;51.420;5.454;2023-01-28T04:47:36;102811.19;;;3.87;65.19
59029;BME280;45919;51.420;5.454;2023-01-28T04:48:37;102802.63;;;3.88;65.59
59029;BME280;45919;51.420;5.454;2023-01-28T04:49:39;102799.28;;;3.89;65.40
59029;BME280;45919;51.420;5.454;2023-01-28T04:50:40;102801.19;;;3.92;65.45
59029;BME280;45919;51.420;5.454;2023-01-28T04:51:42;102805.59;;;3.93;65.56
59029;BME280;45919;51.420;5.454;2023-01-28T04:52:43;102804.03;;;3.95;65.93
59029;BME280;45919;51.420;5.454;2023-01-28T04:53:45;102804.13;;;3.97;65.76
59029;BME280;45919;51.420;5.454;2023-01-28T04:54:46;102809.53;;;4.00;66.14
59029;BME280;45919;51.420;5.454;2023-01-28T04:55:48;102812.22;;;4.01;66.11
59029;BME280;45919;51.420;5.454;2023-01-28T04:56:49;102808.88;;;4.02;66.17
59029;BME280;45919;51.420;5.454;2023-01-28T04:57:51;102813.34;;;4.05;66.13
59029;BME280;45919;51.420;5.454;2023-01-28T04:58:52;102823.78;;;4.06;66.07
59029;BME280;45919;51.420;5.454;2023-01-28T04:59:54;102810.09;;;4.07;66.38
59029;BME280;45919;51.420;5.454;2023-01-28T05:00:56;102804.00;;;4.07;65.52
59029;BME280;45919;51.420;5.454;2023-01-28T05:01:58;102812.56;;;4.06;65.04
59029;BME280;45919;51.420;5.454;2023-01-28T05:02:59;102815.06;;;4.04;63.33
59029;BME280;45919;51.420;5.454;2023-01-28T05:04:01;102747.56;;;3.65;64.67
59029;BME280;45919;51.420;5.454;2023-01-28T05:05:05;102807.16;;;4.03;65.82
59029;BME280;45919;51.420;5.454;2023-01-28T05:06:09;102810.66;;;4.03;66.24
59029;BME280;45919;51.420;5.454;2023-01-28T05:07:11;102811.56;;;4.04;66.59
59029;BME280;45919;51.420;5.454;2023-01-28T05:08:12;102807.84;;;4.00;65.77
59029;BME280;45919;51.420;5.454;2023-01-28T05:09:14;102814.59;;;3.98;66.26
59029;BME280;45919;51.420;5.454;2023-01-28T05:10:15;102813.56;;;3.96;66.29
59029;BME280;45919;51.420;5.454;2023-01-28T05:11:16;102820.31;;;3.94;66.63
59029;BME280;45919;51.420;5.454;2023-01-28T05:12:18;102812.44;;;3.92;66.90
59029;BME280;45919;51.420;5.454;2023-01-28T05:13:21;102813.91;;;3.89;65.93
59029;BME280;45919;51.420;5.454;2023-01-28T05:14:22;102810.41;;;3.88;66.71
59029;BME280;45919;51.420;5.454;2023-01-28T05:15:24;102812.66;;;3.83;65.19
59029;BME280;45919;51.420;5.454;2023-01-28T05:16:25;102818.72;;;3.84;66.59
59029;BME280;45919;51.420;5.454;2023-01-28T05:17:27;102820.94;;;3.79;65.38
59029;BME280;45919;51.420;5.454;2023-01-28T05:18:29;102829.13;;;3.74;64.97
59029;BME280;45919;51.420;5.454;2023-01-28T05:19:30;102815.78;;;3.67;65.25
59029;BME280;45919;51.420;5.454;2023-01-28T05:20:31;102813.84;;;3.65;65.44
59029;BME280;45919;51.420;5.454;2023-01-28T05:21:33;102806.78;;;3.62;65.54
59029;BME280;45919;51.420;5.454;2023-01-28T05:22:34;102815.28;;;3.61;65.70
59029;BME280;45919;51.420;5.454;2023-01-28T05:23:36;102820.34;;;3.59;65.84
59029;BME280;45919;51.420;5.454;2023-01-28T05:24:37;102812.59;;;3.59;66.11
59029;BME280;45919;51.420;5.454;2023-01-28T05:25:39;102823.84;;;3.60;66.20
59029;BME280;45919;51.420;5.454;2023-01-28T05:26:40;102821.16;;;3.58;65.56
59029;BME280;45919;51.420;5.454;2023-01-28T05:27:42;102820.34;;;3.59;65.75
59029;BME280;45919;51.420;5.454;2023-01-28T05:28:43;102820.34;;;3.59;65.95
59029;BME280;45919;51.420;5.454;2023-01-28T05:29:45;102820.34;;;3.59;65.74
59029;BME280;45919;51.420;5.454;2023-01-28T05:30:46;102827.31;;;3.61;65.99
59029;BME280;45919;51.420;5.454;2023-01-28T05:31:48;102817.13;;;3.62;66.33
59029;BME280;45919;51.420;5.454;2023-01-28T05:32:53;102819.69;;;3.62;65.75
59029;BME280;45919;51.420;5.454;2023-01-28T05:33:55;102822.03;;;3.59;64.47
59029;BME280;45919;51.420;5.454;2023-01-28T05:34:56;102819.69;;;3.62;65.44
59029;BME280;45919;51.420;5.454;2023-01-28T05:35:58;102816.22;;;3.62;65.87
59029;BME280;45919;51.420;5.454;2023-01-28T05:36:59;102811.16;;;3.63;65.63
59029;BME280;45919;51.420;5.454;2023-01-28T05:38:01;102817.22;;;3.64;65.63
59029;BME280;45919;51.420;5.454;2023-01-28T05:39:03;102814.63;;;3.64;65.87
59029;BME280;45919;51.420;5.454;2023-01-28T05:40:04;102719.22;;;3.08;64.98
59029;BME280;45919;51.420;5.454;2023-01-28T05:41:06;102808.34;;;3.60;64.01
59029;BME280;45919;51.420;5.454;2023-01-28T05:42:08;102812.72;;;3.61;65.53
59029;BME280;45919;51.420;5.454;2023-01-28T05:43:09;102817.75;;;3.59;65.46
59029;BME280;45919;51.420;5.454;2023-01-28T05:44:11;102821.91;;;3.57;64.86
59029;BME280;45919;51.420;5.454;2023-01-28T05:45:12;102814.97;;;3.56;65.44
59029;BME280;45919;51.420;5.454;2023-01-28T05:46:14;102820.91;;;3.55;65.50
59029;BME280;45919;51.420;5.454;2023-01-28T05:47:15;102811.34;;;3.54;65.49
59029;BME280;45919;51.420;5.454;2023-01-28T05:48:17;102817.44;;;3.55;66.08
59029;BME280;45919;51.420;5.454;2023-01-28T05:49:19;102820.78;;;3.54;66.03
59029;BME280;45919;51.420;5.454;2023-01-28T05:50:20;102812.25;;;3.55;66.13
59029;BME280;45919;51.420;5.454;2023-01-28T05:51:22;102816.53;;;3.54;66.43
59029;BME280;45919;51.420;5.454;2023-01-28T05:52:23;102824.38;;;3.56;66.53
59029;BME280;45919;51.420;5.454;2023-01-28T05:53:25;102820.91;;;3.55;66.70
59029;BME280;45919;51.420;5.454;2023-01-28T05:54:26;102820.00;;;3.55;66.65
59029;BME280;45919;51.420;5.454;2023-01-28T05:55:28;102828.53;;;3.54;66.75
59029;BME280;45919;51.420;5.454;2023-01-28T05:56:29;102820.00;;;3.55;67.23
59029;BME280;45919;51.420;5.454;2023-01-28T05:57:31;102824.94;;;3.52;66.75
59029;BME280;45919;51.420;5.454;2023-01-28T05:58:32;102824.06;;;3.51;67.21
59029;BME280;45919;51.420;5.454;2023-01-28T05:59:34;102829.22;;;3.51;67.32
59029;BME280;45919;51.420;5.454;2023-01-28T06:00:35;102823.78;;;3.48;67.24